Time;durP1;ratioP1;P1;durP2;ratioP2;P2;SDS_P1;SDS_P2;PMS_P1;PMS_P2;Temp;Humidity;BMP_temperature;BMP_pressure;BME280_temperature;BME280_humidity;BME280_pressure;Samples;Min_cycle;Max_cycle;Signal;HPM_P1;HPM_P2
2022/03/06 00:02:32;;;;;;;;;;;21.90;44.00;;;;;;6329852;27;19967;-53
2022/03/06 00:05:33;;;;;;;;;;;21.30;43.60;;;;;;6328518;27;19927;-50
2022/03/06 00:08:35;;;;;;;;;;;21.00;43.50;;;;;;6334918;27;21548;-52
2022/03/06 00:11:37;;;;;;;;;;;21.60;43.80;;;;;;6332440;27;20047;-53
2022/03/06 00:14:38;;;;;;;;;;;21.10;43.70;;;;;;6330990;27;20920;-52
2022/03/06 00:17:40;;;;;;;;;;;21.20;43.70;;;;;;6328412;27;20047;-57
2022/03/06 00:20:41;;;;;;;;;;;21.00;43.50;;;;;;6329429;27;19923;-51
2022/03/06 00:23:43;;;;;;;;;;;21.10;43.00;;;;;;6309838;27;19927;-53
2022/03/06 00:26:45;;;;;;;;;;;21.50;43.70;;;;;;6318328;27;20059;-52
2022/03/06 00:29:46;;;;;;;;;;;21.10;43.50;;;;;;6332577;27;20786;-53
2022/03/06 00:32:48;;;;;;;;;;;21.60;43.80;;;;;;6330598;27;19927;-52
2022/03/06 00:35:49;;;;;;;;;;;21.30;43.70;;;;;;6334130;27;19927;-54
2022/03/06 00:38:51;;;;;;;;;;;21.10;43.60;;;;;;6333158;27;19966;-51
2022/03/06 00:41:52;;;;;;;;;;;21.30;43.70;;;;;;6330892;27;19938;-55
2022/03/06 00:44:54;;;;;;;;;;;21.30;43.90;;;;;;6331616;27;19927;-54
2022/03/06 00:47:55;;;;;;;;;;;21.30;43.90;;;;;;6331212;27;19931;-53
2022/03/06 00:50:57;;;;;;;;;;;20.90;43.70;;;;;;6329385;27;20111;-54
2022/03/06 00:53:59;;;;;;;;;;;21.10;43.60;;;;;;6330633;27;20616;-53
2022/03/06 00:57:00;;;;;;;;;;;20.90;43.50;;;;;;6333549;27;20097;-52
2022/03/06 01:00:03;;;;;;;;;;;21.10;43.70;;;;;;6328089;27;19999;-55
2022/03/06 01:03:04;;;;;;;;;;;21.70;43.90;;;;;;6317230;27;19943;-53
2022/03/06 01:06:06;;;;;;;;;;;21.00;43.60;;;;;;6330649;27;19995;-53
2022/03/06 01:09:08;;;;;;;;;;;20.80;43.60;;;;;;6334006;27;19966;-53
2022/03/06 01:12:11;;;;;;;;;;;21.30;43.80;;;;;;6336466;27;19936;-49
2022/03/06 01:15:12;;;;;;;;;;;21.00;43.60;;;;;;6332932;27;19931;-54
2022/03/06 01:18:14;;;;;;;;;;;21.10;43.70;;;;;;6335080;27;20059;-49
2022/03/06 01:21:15;;;;;;;;;;;21.00;43.70;;;;;;6335503;27;19923;-52
2022/03/06 01:24:17;;;;;;;;;;;21.00;43.70;;;;;;6332501;27;20873;-53
2022/03/06 01:27:18;;;;;;;;;;;21.00;43.50;;;;;;6337755;27;19996;-52
2022/03/06 01:30:21;;;;;;;;;;;21.40;43.90;;;;;;6334410;27;20004;-52
2022/03/06 01:33:22;;;;;;;;;;;21.30;43.90;;;;;;6334003;27;19931;-54
2022/03/06 01:36:24;;;;;;;;;;;20.70;43.70;;;;;;6334437;27;19931;-54
2022/03/06 01:39:26;;;;;;;;;;;21.00;43.70;;;;;;6332660;27;19985;-52
2022/03/06 01:42:27;;;;;;;;;;;21.20;43.80;;;;;;6334685;27;19927;-53
2022/03/06 01:45:28;;;;;;;;;;;21.60;44.20;;;;;;6333971;27;20042;-52
2022/03/06 01:48:30;;;;;;;;;;;21.20;44.00;;;;;;6338043;27;19927;-50
2022/03/06 01:51:31;;;;;;;;;;;20.80;43.70;;;;;;6338066;27;20034;-55
2022/03/06 01:54:33;;;;;;;;;;;21.30;43.80;;;;;;6332098;27;20099;-54
2022/03/06 01:57:34;;;;;;;;;;;20.90;43.80;;;;;;6332097;27;20830;-53
2022/03/06 02:00:38;;;;;;;;;;;21.70;44.20;;;;;;6331708;27;19935;-55
2022/03/06 02:03:39;;;;;;;;;;;21.40;43.80;;;;;;6334087;27;19927;-54
2022/03/06 02:06:41;;;;;;;;;;;21.20;44.00;;;;;;6335223;27;19931;-50
2022/03/06 02:09:43;;;;;;;;;;;20.90;43.80;;;;;;6335951;27;19931;-55
2022/03/06 02:12:45;;;;;;;;;;;21.10;43.80;;;;;;6337792;27;19999;-54
2022/03/06 02:15:46;;;;;;;;;;;20.80;43.70;;;;;;6315625;27;19978;-51
2022/03/06 02:18:48;;;;;;;;;;;21.30;43.90;;;;;;6336063;27;20053;-53
2022/03/06 02:21:50;;;;;;;;;;;21.00;44.00;;;;;;6331458;27;20025;-54
2022/03/06 02:24:51;;;;;;;;;;;21.10;43.90;;;;;;6335497;27;20046;-51
2022/03/06 02:27:53;;;;;;;;;;;21.10;43.90;;;;;;6314086;27;19927;-54
2022/03/06 02:30:55;;;;;;;;;;;21.00;43.80;;;;;;6332502;27;20060;-55
2022/03/06 02:33:56;;;;;;;;;;;21.00;43.90;;;;;;6332637;27;20033;-53
2022/03/06 02:37:00;;;;;;;;;;;21.30;44.10;;;;;;6324763;27;19961;-54
2022/03/06 02:40:03;;;;;;;;;;;21.00;43.10;;;;;;6325611;27;20455;-50
2022/03/06 02:43:05;;;;;;;;;;;21.60;44.00;;;;;;6304161;27;20128;-51
2022/03/06 02:46:06;;;;;;;;;;;21.40;44.00;;;;;;6311601;27;20802;-54
2022/03/06 02:49:09;;;;;;;;;;;21.10;44.10;;;;;;6329306;27;19927;-55
2022/03/06 02:52:11;;;;;;;;;;;20.90;43.90;;;;;;6327474;27;19948;-51
2022/03/06 02:55:13;;;;;;;;;;;21.40;44.00;;;;;;6326320;27;19953;-52
2022/03/06 02:58:14;;;;;;;;;;;20.90;43.80;;;;;;6327672;27;20348;-50
2022/03/06 03:01:16;;;;;;;;;;;21.20;44.00;;;;;;6326587;27;20074;-52
2022/03/06 03:04:17;;;;;;;;;;;21.60;44.30;;;;;;6326842;27;20055;-55
2022/03/06 03:07:19;;;;;;;;;;;21.50;44.20;;;;;;6327013;27;20428;-53
2022/03/06 03:10:22;;;;;;;;;;;21.10;43.90;;;;;;6327031;27;20026;-51
2022/03/06 03:13:23;;;;;;;;;;;20.80;43.70;;;;;;6311117;27;19951;-52
2022/03/06 03:16:25;;;;;;;;;;;20.90;44.00;;;;;;6323455;27;20057;-52
2022/03/06 03:19:26;;;;;;;;;;;21.10;44.00;;;;;;6331319;27;19931;-53
2022/03/06 03:22:28;;;;;;;;;;;20.90;43.90;;;;;;6328311;27;20018;-49
2022/03/06 03:25:29;;;;;;;;;;;21.30;44.00;;;;;;6326908;27;20485;-51
2022/03/06 03:28:31;;;;;;;;;;;20.80;44.00;;;;;;6309910;27;20381;-52
2022/03/06 03:31:32;;;;;;;;;;;21.10;44.00;;;;;;6321104;27;20061;-51
2022/03/06 03:34:34;;;;;;;;;;;21.20;44.00;;;;;;6323566;27;19928;-54
2022/03/06 03:37:36;;;;;;;;;;;21.00;44.00;;;;;;6331171;27;19986;-53
2022/03/06 03:40:37;;;;;;;;;;;21.00;44.00;;;;;;6335398;27;20116;-52
2022/03/06 03:43:39;;;;;;;;;;;21.20;44.10;;;;;;6331326;27;19927;-55
2022/03/06 03:46:40;;;;;;;;;;;20.80;43.90;;;;;;6328633;27;20478;-50
2022/03/06 03:49:41;;;;;;;;;;;21.40;44.10;;;;;;6331278;27;20398;-51
2022/03/06 03:52:43;;;;;;;;;;;20.80;43.80;;;;;;6331125;27;20457;-52
2022/03/06 03:55:45;;;;;;;;;;;21.10;44.00;;;;;;6335388;27;20054;-51
2022/03/06 03:58:46;;;;;;;;;;;20.60;43.90;;;;;;6330452;27;19990;-54
2022/03/06 04:01:47;;;;;;;;;;;21.10;44.10;;;;;;6327986;27;19935;-53
2022/03/06 04:04:49;;;;;;;;;;;21.00;43.70;;;;;;6334735;27;19935;-53
2022/03/06 04:07:51;;;;;;;;;;;21.10;44.00;;;;;;6312962;27;20291;-52
2022/03/06 04:10:56;;;;;;;;;;;20.90;43.80;;;;;;6333701;27;20376;-52
2022/03/06 04:13:57;;;;;;;;;;;21.20;44.10;;;;;;6333169;27;20046;-53
2022/03/06 04:16:59;;;;;;;;;;;20.90;44.10;;;;;;6329404;27;19927;-54
2022/03/06 04:20:00;;;;;;;;;;;20.80;43.90;;;;;;6333795;27;20042;-50
2022/03/06 04:23:02;;;;;;;;;;;21.20;43.90;;;;;;6327943;27;20195;-50
2022/03/06 04:26:03;;;;;;;;;;;20.90;43.90;;;;;;6326899;27;20461;-50
2022/03/06 04:29:05;;;;;;;;;;;21.00;44.10;;;;;;6317185;27;19927;-51
2022/03/06 04:32:07;;;;;;;;;;;20.90;44.00;;;;;;6326796;27;19931;-53
2022/03/06 04:35:08;;;;;;;;;;;21.50;44.20;;;;;;6328946;27;20736;-52
2022/03/06 04:38:10;;;;;;;;;;;21.20;44.10;;;;;;6325348;27;19927;-55
2022/03/06 04:41:12;;;;;;;;;;;20.80;43.90;;;;;;6326649;27;20034;-51
2022/03/06 04:44:13;;;;;;;;;;;21.10;44.20;;;;;;6327439;27;19928;-53
2022/03/06 04:47:15;;;;;;;;;;;20.70;44.00;;;;;;6326757;27;20630;-53
2022/03/06 04:50:16;;;;;;;;;;;20.80;43.90;;;;;;6330205;27;19934;-53
2022/03/06 04:53:18;;;;;;;;;;;21.10;44.20;;;;;;6325707;27;19943;-52
2022/03/06 04:56:19;;;;;;;;;;;20.90;44.00;;;;;;6325239;27;20062;-53
2022/03/06 04:59:21;;;;;;;;;;;20.90;44.20;;;;;;6327695;27;19982;-50
2022/03/06 05:02:22;;;;;;;;;;;20.90;44.10;;;;;;6323315;27;20063;-52
2022/03/06 05:05:24;;;;;;;;;;;21.10;44.20;;;;;;6324793;27;20250;-52
2022/03/06 05:08:27;;;;;;;;;;;20.80;44.00;;;;;;6327571;27;20151;-52
2022/03/06 05:11:29;;;;;;;;;;;20.60;43.80;;;;;;6329712;27;20110;-51
2022/03/06 05:14:30;;;;;;;;;;;21.00;44.10;;;;;;6328906;27;20287;-52
2022/03/06 05:17:32;;;;;;;;;;;20.70;44.00;;;;;;6325850;27;20246;-52
2022/03/06 05:20:33;;;;;;;;;;;21.10;43.50;;;;;;6321552;27;21247;-51
2022/03/06 05:23:35;;;;;;;;;;;21.00;44.30;;;;;;6323699;27;20046;-52
2022/03/06 05:26:38;;;;;;;;;;;21.10;44.10;;;;;;6309645;27;19990;-52
2022/03/06 05:29:39;;;;;;;;;;;21.50;44.50;;;;;;6318711;27;20214;-52
2022/03/06 05:32:41;;;;;;;;;;;21.10;44.30;;;;;;6322241;27;20619;-51
2022/03/06 05:35:42;;;;;;;;;;;21.20;44.20;;;;;;6324791;27;20314;-54
2022/03/06 05:38:44;;;;;;;;;;;21.00;44.20;;;;;;6322696;27;20182;-50
2022/03/06 05:41:45;;;;;;;;;;;21.30;43.60;;;;;;6323744;27;20143;-49
2022/03/06 05:44:47;;;;;;;;;;;21.00;44.20;;;;;;6321116;27;20186;-54
2022/03/06 05:47:48;;;;;;;;;;;20.50;43.90;;;;;;6318529;27;20145;-52
2022/03/06 05:50:50;;;;;;;;;;;20.80;44.10;;;;;;6324267;27;20716;-51
2022/03/06 05:53:52;;;;;;;;;;;21.10;44.30;;;;;;6303346;27;20031;-52
2022/03/06 05:56:53;;;;;;;;;;;20.80;44.10;;;;;;6321766;27;19934;-50
2022/03/06 05:59:54;;;;;;;;;;;20.80;44.10;;;;;;6320468;27;19930;-52
2022/03/06 06:02:56;;;;;;;;;;;21.20;44.20;;;;;;6322861;27;20073;-50
2022/03/06 06:05:58;;;;;;;;;;;21.30;44.00;;;;;;6322571;27;20179;-50
2022/03/06 06:09:00;;;;;;;;;;;21.00;44.00;;;;;;6321872;27;20210;-52
2022/03/06 06:12:01;;;;;;;;;;;21.20;44.20;;;;;;6321780;27;20027;-54
2022/03/06 06:15:03;;;;;;;;;;;20.90;44.00;;;;;;6320391;27;20055;-49
2022/03/06 06:18:04;;;;;;;;;;;22.50;45.00;;;;;;6324851;27;19931;-52
2022/03/06 06:21:05;;;;;;;;;;;21.00;44.10;;;;;;6325809;27;20451;-50
2022/03/06 06:24:07;;;;;;;;;;;20.90;44.10;;;;;;6322498;27;20350;-52
2022/03/06 06:27:08;;;;;;;;;;;21.20;44.20;;;;;;6313289;27;19927;-53
2022/03/06 06:30:10;;;;;;;;;;;20.90;44.10;;;;;;6310291;27;19981;-54
2022/03/06 06:33:11;;;;;;;;;;;21.00;44.20;;;;;;6324111;27;20519;-49
2022/03/06 06:36:13;;;;;;;;;;;21.40;44.50;;;;;;6323352;27;20045;-51
2022/03/06 06:39:15;;;;;;;;;;;20.70;44.10;;;;;;6328229;27;20260;-52
2022/03/06 06:42:16;;;;;;;;;;;20.70;44.00;;;;;;6325392;27;19932;-51
2022/03/06 06:45:18;;;;;;;;;;;21.10;44.30;;;;;;6324197;27;20016;-51
2022/03/06 06:48:19;;;;;;;;;;;20.60;44.10;;;;;;6321854;27;19931;-54
2022/03/06 06:51:20;;;;;;;;;;;20.90;44.20;;;;;;6326502;27;19930;-55
2022/03/06 06:54:22;;;;;;;;;;;20.80;44.20;;;;;;6322156;27;20210;-53
2022/03/06 06:57:24;;;;;;;;;;;20.90;44.20;;;;;;6323381;27;20637;-52
2022/03/06 07:00:25;;;;;;;;;;;21.10;44.30;;;;;;6324718;27;20867;-48
2022/03/06 07:03:27;;;;;;;;;;;20.80;44.20;;;;;;6323622;27;20057;-55
2022/03/06 07:06:28;;;;;;;;;;;21.40;44.60;;;;;;6322643;27;20003;-54
2022/03/06 07:09:30;;;;;;;;;;;20.70;44.20;;;;;;6324311;27;20184;-51
2022/03/06 07:12:40;;;;;;;;;;;21.50;44.50;;;;;;6324612;27;19943;-53
2022/03/06 07:15:41;;;;;;;;;;;21.10;44.30;;;;;;6319318;27;20180;-55
2022/03/06 07:18:43;;;;;;;;;;;20.70;44.20;;;;;;6325025;27;20189;-51
2022/03/06 07:21:44;;;;;;;;;;;21.00;44.20;;;;;;6322980;27;20474;-51
2022/03/06 07:24:46;;;;;;;;;;;20.90;44.10;;;;;;6322618;27;20050;-50
2022/03/06 07:27:47;;;;;;;;;;;20.90;44.20;;;;;;6327401;27;19996;-50
2022/03/06 07:30:49;;;;;;;;;;;20.80;44.20;;;;;;6303627;27;20255;-50
2022/03/06 07:33:50;;;;;;;;;;;21.10;44.30;;;;;;6325824;27;20123;-51
2022/03/06 07:36:51;;;;;;;;;;;20.80;44.20;;;;;;6325035;27;20351;-52
2022/03/06 07:39:53;;;;;;;;;;;20.90;44.30;;;;;;6325663;27;20093;-51
2022/03/06 07:42:55;;;;;;;;;;;20.70;44.00;;;;;;6325699;27;20208;-51
2022/03/06 07:45:56;;;;;;;;;;;21.10;44.30;;;;;;6325240;27;20158;-50
2022/03/06 07:48:57;;;;;;;;;;;21.00;44.30;;;;;;6316414;27;20136;-52
2022/03/06 07:51:59;;;;;;;;;;;20.80;44.20;;;;;;6327974;27;19974;-51
2022/03/06 07:55:01;;;;;;;;;;;20.70;44.10;;;;;;6325876;27;20294;-53
2022/03/06 07:58:02;;;;;;;;;;;20.80;44.10;;;;;;6305811;27;20050;-49
2022/03/06 08:01:04;;;;;;;;;;;20.70;44.20;;;;;;6327825;27;20046;-51
2022/03/06 08:04:05;;;;;;;;;;;21.10;44.30;;;;;;6324399;27;20265;-53
2022/03/06 08:07:06;;;;;;;;;;;21.20;44.20;;;;;;6326185;27;20038;-49
2022/03/06 08:10:09;;;;;;;;;;;20.70;44.10;;;;;;6327060;27;19978;-51
2022/03/06 08:13:10;;;;;;;;;;;20.60;43.90;;;;;;6325927;27;19981;-53
2022/03/06 08:16:11;;;;;;;;;;;20.70;44.10;;;;;;6320063;27;20187;-51
2022/03/06 08:19:13;;;;;;;;;;;20.70;44.20;;;;;;6320922;27;20324;-54
2022/03/06 08:22:15;;;;;;;;;;;20.80;43.40;;;;;;6321457;27;20305;-51
2022/03/06 08:25:20;;;;;;;;;;;21.20;44.30;;;;;;6324172;27;19931;-53
2022/03/06 08:28:21;;;;;;;;;;;20.90;44.10;;;;;;6305619;27;20119;-53
2022/03/06 08:31:22;;;;;;;;;;;20.80;44.20;;;;;;6311784;27;20015;-52
2022/03/06 08:34:24;;;;;;;;;;;21.10;44.20;;;;;;6317878;27;19985;-49
2022/03/06 08:37:25;;;;;;;;;;;20.90;44.10;;;;;;6321294;27;20307;-50
2022/03/06 08:40:27;;;;;;;;;;;21.00;44.20;;;;;;6322879;27;20349;-52
2022/03/06 08:43:29;;;;;;;;;;;21.20;43.70;;;;;;6318272;27;20062;-51
2022/03/06 08:46:30;;;;;;;;;;;20.80;44.00;;;;;;6318290;27;20042;-50
2022/03/06 08:49:32;;;;;;;;;;;21.00;44.20;;;;;;6318973;27;20198;-51
2022/03/06 08:52:33;;;;;;;;;;;20.80;44.10;;;;;;6321663;27;20438;-51
2022/03/06 08:55:35;;;;;;;;;;;21.00;44.10;;;;;;6321300;27;20402;-49
2022/03/06 08:58:36;;;;;;;;;;;20.60;43.90;;;;;;6323562;27;20327;-52
2022/03/06 09:01:38;;;;;;;;;;;20.90;44.20;;;;;;6318795;27;20627;-50
2022/03/06 09:04:40;;;;;;;;;;;21.00;44.00;;;;;;6321706;27;19996;-50
2022/03/06 09:07:41;;;;;;;;;;;21.10;44.00;;;;;;6318740;27;20197;-50
2022/03/06 09:10:43;;;;;;;;;;;20.60;43.80;;;;;;6321038;27;20360;-53
2022/03/06 09:13:45;;;;;;;;;;;20.60;43.90;;;;;;6319121;27;20317;-51
2022/03/06 09:16:46;;;;;;;;;;;20.80;43.90;;;;;;6297690;27;20160;-51
2022/03/06 09:19:48;;;;;;;;;;;20.80;43.70;;;;;;6322700;27;20000;-52
2022/03/06 09:22:49;;;;;;;;;;;21.10;43.70;;;;;;6325734;27;19970;-53
2022/03/06 09:25:51;;;;;;;;;;;20.90;43.50;;;;;;6327092;27;20046;-52
2022/03/06 09:28:52;;;;;;;;;;;20.90;43.30;;;;;;6328917;27;20770;-53
2022/03/06 09:31:54;;;;;;;;;;;21.10;43.40;;;;;;6327143;27;19938;-53
2022/03/06 09:34:55;;;;;;;;;;;21.40;43.50;;;;;;6332066;27;19992;-53
2022/03/06 09:37:56;;;;;;;;;;;21.40;43.00;;;;;;6330545;27;20839;-57
2022/03/06 09:41:00;;;;;;;;;;;21.40;43.30;;;;;;6331185;27;20053;-53
2022/03/06 09:44:03;;;;;;;;;;;21.30;43.10;;;;;;6311009;27;19934;-53
2022/03/06 09:47:05;;;;;;;;;;;21.60;43.10;;;;;;6327615;27;19938;-54
2022/03/06 09:50:08;;;;;;;;;;;21.30;42.80;;;;;;6321064;27;19927;-52
2022/03/06 09:53:09;;;;;;;;;;;21.50;42.90;;;;;;6316421;27;20168;-50
2022/03/06 09:56:11;;;;;;;;;;;21.10;42.60;;;;;;6314626;27;19935;-54
2022/03/06 09:59:13;;;;;;;;;;;21.80;42.90;;;;;;6322350;27;20297;-53
2022/03/06 10:02:14;;;;;;;;;;;21.80;43.00;;;;;;6314142;27;20517;-51
2022/03/06 10:05:25;;;;;;;;;;;21.70;42.90;;;;;;6317205;27;20350;-51
2022/03/06 10:08:27;;;;;;;;;;;22.10;42.90;;;;;;6321695;27;20373;-50
2022/03/06 10:11:29;;;;;;;;;;;21.30;42.60;;;;;;6301626;27;20596;-54
2022/03/06 10:14:34;;;;;;;;;;;21.60;42.60;;;;;;6317727;27;19975;-56
2022/03/06 10:17:36;;;;;;;;;;;21.80;42.60;;;;;;6322402;27;20774;-53
2022/03/06 10:20:37;;;;;;;;;;;21.60;42.60;;;;;;6324500;27;19934;-54
2022/03/06 10:23:39;;;;;;;;;;;21.80;42.70;;;;;;6327683;27;20038;-51
2022/03/06 10:26:41;;;;;;;;;;;21.50;42.30;;;;;;6326659;27;20560;-51
2022/03/06 10:29:42;;;;;;;;;;;21.90;42.40;;;;;;6327738;27;20020;-52
2022/03/06 10:32:44;;;;;;;;;;;21.90;42.50;;;;;;6321596;27;20154;-53
2022/03/06 10:35:50;;;;;;;;;;;22.00;42.50;;;;;;6322713;27;20607;-53
2022/03/06 10:38:53;;;;;;;;;;;21.40;41.60;;;;;;6304501;27;20613;-51
2022/03/06 10:41:56;;;;;;;;;;;22.10;42.30;;;;;;6324496;27;20679;-52
2022/03/06 10:44:57;;;;;;;;;;;21.70;42.10;;;;;;6304622;27;20799;-50
2022/03/06 10:48:07;;;;;;;;;;;21.80;42.10;;;;;;6322279;27;20234;-50
2022/03/06 10:51:09;;;;;;;;;;;21.70;41.90;;;;;;6306037;27;20039;-53
2022/03/06 10:54:13;;;;;;;;;;;21.90;42.00;;;;;;6299320;27;19939;-51
2022/03/06 10:57:15;;;;;;;;;;;21.80;41.90;;;;;;6321890;27;20694;-54
2022/03/06 11:00:16;;;;;;;;;;;22.00;42.00;;;;;;6321354;27;20664;-51
2022/03/06 11:03:18;;;;;;;;;;;22.00;42.00;;;;;;6319827;27;20011;-53
2022/03/06 11:06:20;;;;;;;;;;;21.90;41.80;;;;;;6324755;27;20461;-54
2022/03/06 11:09:22;;;;;;;;;;;22.50;42.00;;;;;;6321079;27;21557;-53
2022/03/06 11:12:24;;;;;;;;;;;21.90;41.70;;;;;;6318654;27;20817;-50
2022/03/06 11:15:26;;;;;;;;;;;21.90;41.60;;;;;;6317138;27;20201;-51
2022/03/06 11:18:28;;;;;;;;;;;22.00;41.70;;;;;;6318003;27;19927;-51
2022/03/06 11:21:31;;;;;;;;;;;22.40;41.80;;;;;;6321135;27;19931;-53
2022/03/06 11:24:33;;;;;;;;;;;22.30;41.60;;;;;;6301263;27;20102;-52
2022/03/06 11:27:40;;;;;;;;;;;21.90;41.40;;;;;;6315489;27;20101;-53
2022/03/06 11:30:42;;;;;;;;;;;22.10;41.40;;;;;;6314721;27;20304;-53
2022/03/06 11:33:54;;;;;;;;;;;22.00;41.40;;;;;;6315801;27;19954;-52
2022/03/06 11:36:56;;;;;;;;;;;22.30;41.50;;;;;;6324877;27;20393;-52
2022/03/06 11:39:57;;;;;;;;;;;22.50;41.50;;;;;;6322231;27;20045;-50
2022/03/06 11:42:59;;;;;;;;;;;22.00;41.40;;;;;;6320774;27;20233;-51
2022/03/06 11:46:02;;;;;;;;;;;22.10;40.60;;;;;;6319036;27;19969;-49
2022/03/06 11:49:05;;;;;;;;;;;22.60;41.30;;;;;;6322598;27;20457;-53
2022/03/06 11:52:21;;;;;;;;;;;22.20;41.10;;;;;;6300543;27;20135;-50
2022/03/06 11:55:30;;;;;;;;;;;22.30;41.10;;;;;;6307253;27;19978;-51
2022/03/06 11:58:47;;;;;;;;;;;22.10;41.00;;;;;;6319233;27;19927;-53
2022/03/06 12:01:50;;;;;;;;;;;22.30;41.00;;;;;;6299476;27;20690;-49
2022/03/06 12:04:54;;;;;;;;;;;22.30;41.00;;;;;;6300690;27;20337;-52
2022/03/06 12:07:56;;;;;;;;;;;22.50;41.00;;;;;;6321226;27;19978;-51
2022/03/06 12:10:57;;;;;;;;;;;23.00;41.30;;;;;;6309334;27;20502;-51
2022/03/06 12:14:10;;;;;;;;;;;22.60;41.50;;;;;;6309407;27;20532;-53
2022/03/06 12:17:17;;;;;;;;;;;22.20;40.60;;;;;;6318782;27;20232;-51
2022/03/06 12:20:24;;;;;;;;;;;22.10;40.60;;;;;;6305563;27;20980;-50
2022/03/06 12:23:28;;;;;;;;;;;22.30;40.70;;;;;;6306284;27;20421;-52
2022/03/06 12:26:44;;;;;;;;;;;22.50;40.80;;;;;;6325149;27;21057;-51
2022/03/06 12:29:54;;;;;;;;;;;22.60;40.80;;;;;;6304263;27;20219;-49
2022/03/06 12:32:57;;;;;;;;;;;22.50;40.50;;;;;;6321942;27;20303;-53
2022/03/06 12:36:09;;;;;;;;;;;22.30;40.60;;;;;;6301342;27;20039;-53
2022/03/06 12:39:13;;;;;;;;;;;22.40;40.50;;;;;;6321985;27;20833;-50
2022/03/06 12:42:14;;;;;;;;;;;22.80;40.70;;;;;;6319963;27;20474;-48
2022/03/06 12:45:17;;;;;;;;;;;22.60;40.70;;;;;;6315916;27;19975;-51
2022/03/06 12:48:20;;;;;;;;;;;22.30;40.40;;;;;;6303393;27;20042;-52
2022/03/06 12:51:29;;;;;;;;;;;22.80;40.60;;;;;;6318833;27;19931;-50
2022/03/06 12:54:33;;;;;;;;;;;22.80;40.40;;;;;;6318975;27;19962;-55
2022/03/06 12:57:36;;;;;;;;;;;22.50;40.40;;;;;;6322687;27;20445;-52
2022/03/06 13:00:37;;;;;;;;;;;22.40;40.10;;;;;;6297362;27;20042;-51
2022/03/06 13:03:39;;;;;;;;;;;22.50;40.10;;;;;;6319081;27;19931;-50
2022/03/06 13:06:41;;;;;;;;;;;22.40;40.10;;;;;;6318699;27;20557;-52
2022/03/06 13:09:43;;;;;;;;;;;22.70;40.20;;;;;;6311311;27;21043;-52
2022/03/06 13:12:45;;;;;;;;;;;23.00;40.40;;;;;;6299704;27;20062;-52
2022/03/06 13:15:48;;;;;;;;;;;22.70;40.80;;;;;;6313470;27;20108;-51
2022/03/06 13:18:58;;;;;;;;;;;22.60;40.00;;;;;;6318605;27;20310;-54
2022/03/06 13:21:59;;;;;;;;;;;22.60;39.80;;;;;;6319403;27;20205;-51
2022/03/06 13:25:01;;;;;;;;;;;22.90;40.20;;;;;;6310146;27;19927;-53
2022/03/06 13:28:03;;;;;;;;;;;22.70;40.00;;;;;;6317216;27;20306;-49
2022/03/06 13:31:04;;;;;;;;;;;22.60;39.80;;;;;;6279545;27;20074;-48
2022/03/06 13:34:06;;;;;;;;;;;23.00;40.00;;;;;;6290842;27;20091;-53
2022/03/06 13:37:08;;;;;;;;;;;23.00;40.00;;;;;;6314280;27;19985;-50
2022/03/06 13:40:11;;;;;;;;;;;22.80;40.10;;;;;;6314789;27;20097;-50
2022/03/06 13:43:13;;;;;;;;;;;22.90;39.80;;;;;;6318413;27;20454;-50
2022/03/06 13:46:15;;;;;;;;;;;22.80;39.90;;;;;;6315703;27;20172;-52
2022/03/06 13:49:18;;;;;;;;;;;23.00;40.00;;;;;;6317954;27;20932;-54
2022/03/06 13:52:20;;;;;;;;;;;23.20;40.00;;;;;;6316449;27;20220;-51
2022/03/06 13:55:22;;;;;;;;;;;23.00;40.00;;;;;;6315887;27;20023;-53
2022/03/06 13:58:23;;;;;;;;;;;22.60;39.70;;;;;;6312802;27;20495;-54
2022/03/06 14:01:25;;;;;;;;;;;22.80;39.90;;;;;;6310075;27;20321;-52
2022/03/06 14:04:27;;;;;;;;;;;22.90;39.70;;;;;;6308061;27;19927;-52
2022/03/06 14:07:29;;;;;;;;;;;22.70;39.70;;;;;;6316052;27;20566;-51
2022/03/06 14:10:38;;;;;;;;;;;22.60;39.60;;;;;;6318862;27;20357;-52
2022/03/06 14:13:40;;;;;;;;;;;22.90;39.60;;;;;;6315399;27;20084;-51
2022/03/06 14:16:41;;;;;;;;;;;22.80;39.50;;;;;;6316587;27;20708;-50
2022/03/06 14:19:55;;;;;;;;;;;22.80;40.10;;;;;;6313386;27;20025;-53
2022/03/06 14:22:56;;;;;;;;;;;23.10;39.50;;;;;;6296263;27;19982;-49
2022/03/06 14:25:57;;;;;;;;;;;22.80;39.60;;;;;;6317442;27;20321;-52
2022/03/06 14:29:00;;;;;;;;;;;23.00;38.60;;;;;;6315663;27;20058;-53
2022/03/06 14:32:21;;;;;;;;;;;22.70;39.30;;;;;;6298454;27;20228;-53
2022/03/06 14:35:23;;;;;;;;;;;23.00;39.50;;;;;;6315525;27;20023;-52
2022/03/06 14:38:24;;;;;;;;;;;23.10;39.50;;;;;;6318312;27;19957;-51
2022/03/06 14:41:26;;;;;;;;;;;22.70;39.40;;;;;;6292657;27;20539;-52
2022/03/06 14:44:27;;;;;;;;;;;23.20;39.40;;;;;;6305502;27;20050;-50
2022/03/06 14:47:30;;;;;;;;;;;22.70;39.30;;;;;;6303654;27;19958;-51
2022/03/06 14:50:32;;;;;;;;;;;22.90;38.70;;;;;;6304629;27;20576;-50
2022/03/06 14:53:34;;;;;;;;;;;23.00;39.30;;;;;;6309411;27;19931;-51
2022/03/06 14:56:36;;;;;;;;;;;23.10;39.40;;;;;;6304371;27;19928;-50
2022/03/06 14:59:37;;;;;;;;;;;22.90;39.30;;;;;;6305678;27;20290;-48
2022/03/06 15:02:38;;;;;;;;;;;22.70;39.40;;;;;;6307701;27;20228;-53
2022/03/06 15:05:40;;;;;;;;;;;23.00;39.30;;;;;;6310757;27;19928;-50
2022/03/06 15:08:42;;;;;;;;;;;22.70;39.20;;;;;;6315132;27;19927;-52
2022/03/06 15:11:44;;;;;;;;;;;23.10;40.00;;;;;;6314351;27;20416;-52
2022/03/06 15:14:45;;;;;;;;;;;23.30;39.50;;;;;;6317067;27;20335;-52
2022/03/06 15:17:47;;;;;;;;;;;23.00;39.70;;;;;;6316328;27;20008;-52
2022/03/06 15:20:49;;;;;;;;;;;23.10;39.40;;;;;;6319897;27;20235;-50
2022/03/06 15:23:50;;;;;;;;;;;22.80;39.20;;;;;;6300438;27;20121;-51
2022/03/06 15:26:51;;;;;;;;;;;22.70;39.20;;;;;;6321941;27;20048;-51
2022/03/06 15:29:53;;;;;;;;;;;23.10;39.30;;;;;;6317887;27;20701;-52
2022/03/06 15:32:54;;;;;;;;;;;23.30;39.30;;;;;;6318549;27;20041;-53
2022/03/06 15:35:56;;;;;;;;;;;23.00;39.10;;;;;;6319826;27;20650;-50
2022/03/06 15:38:57;;;;;;;;;;;22.70;39.00;;;;;;6318869;27;20102;-50
2022/03/06 15:41:59;;;;;;;;;;;22.70;39.10;;;;;;6315275;27;20807;-52
2022/03/06 15:45:01;;;;;;;;;;;23.20;36.90;;;;;;6315932;27;20183;-51
2022/03/06 15:48:02;;;;;;;;;;;22.90;39.10;;;;;;6313206;27;20041;-54
2022/03/06 15:51:04;;;;;;;;;;;22.60;39.10;;;;;;6311763;27;20853;-51
2022/03/06 15:54:06;;;;;;;;;;;23.20;39.30;;;;;;6315704;27;20167;-53
2022/03/06 15:57:07;;;;;;;;;;;23.10;39.40;;;;;;6317412;27;20882;-50
2022/03/06 16:00:09;;;;;;;;;;;23.20;39.30;;;;;;6314951;27;19931;-53
2022/03/06 16:03:13;;;;;;;;;;;23.10;39.20;;;;;;6314967;27;20224;-52
2022/03/06 16:06:16;;;;;;;;;;;23.30;39.20;;;;;;6313137;27;20280;-52
2022/03/06 16:09:17;;;;;;;;;;;22.80;39.10;;;;;;6313994;27;20139;-50
2022/03/06 16:12:19;;;;;;;;;;;23.00;39.20;;;;;;6316249;27;20546;-52
2022/03/06 16:15:40;;;;;;;;;;;23.30;39.30;;;;;;6296889;27;20235;-53
2022/03/06 16:18:42;;;;;;;;;;;22.80;39.00;;;;;;6277098;27;19937;-51
2022/03/06 16:21:44;;;;;;;;;;;22.80;38.90;;;;;;6301698;27;20146;-51
2022/03/06 16:24:49;;;;;;;;;;;23.10;39.10;;;;;;6315189;27;19967;-51
2022/03/06 16:27:50;;;;;;;;;;;23.10;39.20;;;;;;6314734;27;20053;-50
2022/03/06 16:30:52;;;;;;;;;;;23.10;39.80;;;;;;6299976;27;20042;-48
2022/03/06 16:33:53;;;;;;;;;;;22.90;39.10;;;;;;6302558;27;20457;-51
2022/03/06 16:36:56;;;;;;;;;;;23.20;39.00;;;;;;6282039;27;19927;-50
2022/03/06 16:39:58;;;;;;;;;;;23.40;39.10;;;;;;6301301;27;20538;-49
2022/03/06 16:43:00;;;;;;;;;;;23.10;39.00;;;;;;6303504;27;20179;-53
2022/03/06 16:46:01;;;;;;;;;;;23.60;39.20;;;;;;6303971;27;20033;-49
2022/03/06 16:49:02;;;;;;;;;;;23.10;38.90;;;;;;6299975;27;20532;-51
2022/03/06 16:52:05;;;;;;;;;;;23.00;38.90;;;;;;6310313;27;20054;-53
2022/03/06 16:55:06;;;;;;;;;;;22.80;38.60;;;;;;6305863;27;19973;-53
2022/03/06 16:58:08;;;;;;;;;;;22.80;38.60;;;;;;6309126;27;20244;-49
2022/03/06 17:01:10;;;;;;;;;;;23.10;38.80;;;;;;6307487;27;19938;-51
2022/03/06 17:04:13;;;;;;;;;;;23.10;38.70;;;;;;6286831;27;20092;-52
2022/03/06 17:07:15;;;;;;;;;;;23.00;38.50;;;;;;6304649;27;20467;-52
2022/03/06 17:10:16;;;;;;;;;;;23.20;38.90;;;;;;6306227;27;20172;-54
2022/03/06 17:13:18;;;;;;;;;;;22.90;38.80;;;;;;6289051;27;19927;-52
2022/03/06 17:16:19;;;;;;;;;;;23.40;39.00;;;;;;6303669;27;20518;-52
2022/03/06 17:19:21;;;;;;;;;;;22.70;38.70;;;;;;6310636;27;20486;-50
2022/03/06 17:22:23;;;;;;;;;;;22.50;38.70;;;;;;6297347;27;20081;-50
2022/03/06 17:25:24;;;;;;;;;;;22.80;38.80;;;;;;6310437;27;20605;-51
2022/03/06 17:28:26;;;;;;;;;;;23.20;39.20;;;;;;6318221;27;20053;-49
2022/03/06 17:31:29;;;;;;;;;;;23.20;38.80;;;;;;6315696;27;20245;-51
2022/03/06 17:34:30;;;;;;;;;;;22.80;38.90;;;;;;6316422;27;19942;-50
2022/03/06 17:37:33;;;;;;;;;;;23.00;39.00;;;;;;6317719;27;19974;-51
2022/03/06 17:40:34;;;;;;;;;;;22.60;39.00;;;;;;6312823;27;20240;-51